Time;durP1;ratioP1;P1;durP2;ratioP2;P2;SDS_P1;SDS_P2;PMS_P1;PMS_P2;Temp;Humidity;BMP_temperature;BMP_pressure;BME280_temperature;BME280_humidity;BME280_pressure;Samples;Min_cycle;Max_cycle;Signal;HPM_P1;HPM_P2
2023/04/20 00:01:53;;;;;;;4.47;1.30;;;9.30;70.80;;;;;;4970771;28;20311;-84
2023/04/20 00:04:20;;;;;;;1.17;1.07;;;9.20;71.50;;;;;;4992599;28;20203;-84
2023/04/20 00:06:46;;;;;;;2.07;1.20;;;9.20;71.60;;;;;;4968872;28;20951;-84
2023/04/20 00:09:15;;;;;;;2.00;0.93;;;9.20;72.50;;;;;;4999134;28;20217;-84
2023/04/20 00:11:42;;;;;;;2.50;1.20;;;9.20;72.70;;;;;;4994902;28;20296;-84
2023/04/20 00:14:09;;;;;;;1.90;1.40;;;9.10;73.50;;;;;;4994942;28;20288;-84
2023/04/20 00:16:36;;;;;;;2.40;1.10;;;9.10;74.20;;;;;;4990664;28;20579;-85
2023/04/20 00:19:03;;;;;;;1.23;1.03;;;9.00;74.70;;;;;;4965587;28;20303;-83
2023/04/20 00:21:30;;;;;;;1.50;1.30;;;9.00;75.40;;;;;;4994682;28;20218;-85
2023/04/20 00:23:56;;;;;;;1.63;1.20;;;9.00;76.20;;;;;;4978451;28;20303;-85
2023/04/20 00:26:24;;;;;;;3.23;1.90;;;8.90;76.90;;;;;;4985052;28;20205;-85
2023/04/20 00:28:54;;;;;;;2.10;1.40;;;8.90;77.50;;;;;;4984917;28;20269;-85
2023/04/20 00:31:21;;;;;;;2.33;1.10;;;8.80;77.80;;;;;;4997608;28;20271;-85
2023/04/20 00:33:48;;;;;;;2.20;1.60;;;8.80;78.30;;;;;;4962311;28;20326;-84
2023/04/20 00:36:15;;;;;;;1.53;1.00;;;8.80;79.30;;;;;;4982728;28;20808;-84
2023/04/20 00:38:43;;;;;;;3.13;1.40;;;8.80;79.30;;;;;;4981591;28;20407;-84
2023/04/20 00:41:09;;;;;;;1.50;1.40;;;8.70;79.90;;;;;;4995092;28;20205;-83
2023/04/20 00:43:38;;;;;;;3.57;1.30;;;8.60;82.20;;;;;;5003612;28;20220;-84
2023/04/20 00:46:06;;;;;;;1.27;1.00;;;8.60;84.60;;;;;;4994077;28;20197;-83
2023/04/20 00:48:33;;;;;;;6.83;1.07;;;8.50;85.70;;;;;;4975928;28;20221;-84
2023/04/20 00:51:01;;;;;;;5.20;1.53;;;8.50;87.80;;;;;;4979101;28;20614;-84
2023/04/20 00:53:28;;;;;;;3.00;1.40;;;8.40;89.60;;;;;;4979950;28;20210;-84
2023/04/20 00:55:56;;;;;;;2.30;1.30;;;8.40;90.40;;;;;;4981231;28;20490;-84
2023/04/20 00:58:23;;;;;;;2.87;1.33;;;8.30;90.60;;;;;;4980123;28;20221;-84
2023/04/20 01:00:52;;;;;;;2.60;1.10;;;8.30;90.70;;;;;;4979762;28;20205;-84
2023/04/20 01:03:20;;;;;;;4.00;1.87;;;8.30;91.00;;;;;;5012389;28;20634;-84
2023/04/20 01:06:10;;;;;;;1.73;1.17;;;8.20;91.00;;;;;;4989284;28;20232;-84
2023/04/20 01:08:46;;;;;;;1.43;1.10;;;8.20;91.00;;;;;;5004687;28;20311;-87
2023/04/20 01:11:14;;;;;;;3.83;2.53;;;8.20;91.20;;;;;;4988321;28;20292;-85
2023/04/20 01:13:41;;;;;;;2.70;1.17;;;8.20;91.30;;;;;;4968822;28;20700;-84
2023/04/20 01:16:10;;;;;;;4.17;1.30;;;8.20;91.40;;;;;;5005739;28;20211;-84
2023/04/20 01:18:43;;;;;;;5.00;1.50;;;8.20;91.80;;;;;;4968457;28;20770;-86
2023/04/20 01:21:11;;;;;;;1.50;1.40;;;8.20;92.40;;;;;;4989621;28;20635;-84
2023/04/20 01:23:39;;;;;;;5.13;1.43;;;8.20;93.00;;;;;;4983911;28;20295;-85
2023/04/20 01:26:08;;;;;;;1.90;1.30;;;8.10;93.40;;;;;;5002433;28;20197;-84
2023/04/20 01:28:35;;;;;;;3.23;1.73;;;8.10;93.90;;;;;;4998631;28;20264;-85
2023/04/20 01:31:02;;;;;;;4.23;1.30;;;8.10;94.30;;;;;;4980952;28;21058;-85
2023/04/20 01:33:32;;;;;;;4.43;1.57;;;8.10;94.60;;;;;;4989864;28;20615;-84
2023/04/20 01:35:59;;;;;;;2.23;1.43;;;8.10;95.10;;;;;;4987206;28;20733;-84
2023/04/20 01:38:27;;;;;;;5.70;1.77;;;8.00;95.60;;;;;;5002452;28;20221;-84
2023/04/20 01:40:55;;;;;;;4.50;1.57;;;8.00;97.50;;;;;;4989843;28;20201;-84
2023/04/20 01:43:22;;;;;;;4.63;1.57;;;7.80;99.90;;;;;;4994263;28;20300;-84
2023/04/20 01:45:50;;;;;;;5.00;1.90;;;8.00;97.00;;;;;;4972030;28;20590;-84
2023/04/20 01:48:18;;;;;;;2.37;1.67;;;8.00;96.80;;;;;;5003595;28;20855;-83
2023/04/20 01:50:45;;;;;;;1.97;1.67;;;8.00;97.50;;;;;;4996730;28;20260;-84
2023/04/20 01:53:12;;;;;;;5.03;2.07;;;7.90;98.30;;;;;;4965196;28;20208;-84
2023/04/20 01:55:40;;;;;;;3.67;1.40;;;7.90;99.40;;;;;;4996541;28;20232;-84
2023/04/20 01:58:30;;;;;;;3.83;1.47;;;7.90;99.90;;;;;;4999785;28;20240;-85
2023/04/20 02:00:57;;;;;;;3.57;1.63;;;7.80;99.90;;;;;;4981965;28;20331;-84
2023/04/20 02:03:24;;;;;;;2.07;1.77;;;7.70;99.90;;;;;;4997220;28;20518;-84
2023/04/20 02:05:54;;;;;;;6.27;2.10;;;7.70;99.90;;;;;;4998966;28;20433;-84
2023/04/20 02:08:22;;;;;;;4.20;2.20;;;7.60;99.90;;;;;;4967150;28;20273;-84
2023/04/20 02:10:49;;;;;;;2.43;1.67;;;7.50;99.90;;;;;;4984833;28;20284;-83
2023/04/20 02:13:15;;;;;;;2.50;1.70;;;7.50;99.90;;;;;;4984627;28;20199;-84
2023/04/20 02:15:43;;;;;;;3.43;2.10;;;7.40;99.90;;;;;;4982067;28;20410;-84
2023/04/20 02:18:15;;;;;;;5.20;1.30;;;7.30;99.90;;;;;;4982371;28;20715;-84
2023/04/20 02:20:41;;;;;;;3.97;2.17;;;7.30;99.90;;;;;;4987750;28;20211;-85
2023/04/20 02:23:08;;;;;;;5.00;1.73;;;7.30;99.90;;;;;;4976449;28;20244;-84
2023/04/20 02:25:36;;;;;;;5.90;2.00;;;7.20;99.90;;;;;;4999230;28;20208;-84
2023/04/20 02:28:25;;;;;;;4.30;1.90;;;7.20;99.90;;;;;;5014433;28;20298;-84
2023/04/20 02:30:53;;;;;;;3.00;1.73;;;7.20;99.90;;;;;;4994378;28;20381;-84
2023/04/20 02:33:21;;;;;;;3.83;1.97;;;7.10;99.90;;;;;;4989439;28;20203;-85
2023/04/20 02:36:10;;;;;;;4.60;2.47;;;7.10;99.90;;;;;;5011090;28;20336;-84
2023/04/20 02:38:40;;;;;;;3.10;1.97;;;7.10;99.90;;;;;;4988397;28;20828;-86
2023/04/20 02:41:07;;;;;;;4.73;2.23;;;7.10;99.90;;;;;;4988262;28;20255;-84
2023/04/20 02:43:35;;;;;;;5.73;1.97;;;7.10;99.90;;;;;;4981092;28;20607;-85
2023/04/20 02:46:06;;;;;;;6.13;2.10;;;7.10;99.90;;;;;;4989907;28;20200;-84
2023/04/20 02:48:34;;;;;;;7.03;2.20;;;7.10;99.90;;;;;;5020542;28;20745;-87
2023/04/20 02:51:02;;;;;;;5.90;2.07;;;7.10;99.90;;;;;;5000780;28;20240;-84
2023/04/20 02:53:34;;;;;;;5.20;2.37;;;7.10;99.90;;;;;;4970662;28;20205;-86
2023/04/20 02:56:12;;;;;;;5.63;2.00;;;7.10;99.90;;;;;;4983739;28;20214;-86
2023/04/20 02:58:43;;;;;;;4.90;2.23;;;7.10;99.90;;;;;;5014909;28;20463;-85
2023/04/20 03:01:32;;;;;;;6.90;2.47;;;7.10;99.90;;;;;;4982350;28;20225;-85
2023/04/20 03:04:09;;;;;;;5.27;1.90;;;7.10;99.90;;;;;;4992222;28;20282;-84
2023/04/20 03:06:42;;;;;;;2.77;2.13;;;7.10;99.90;;;;;;4992809;28;20307;-84
2023/04/20 03:09:13;;;;;;;4.30;2.20;;;7.10;99.90;;;;;;4983518;28;20484;-84
2023/04/20 03:12:01;;;;;;;8.57;2.77;;;7.10;99.90;;;;;;5011329;28;20231;-84
2023/04/20 03:14:51;;;;;;;5.10;1.90;;;7.10;99.90;;;;;;4985636;28;20205;-83
2023/04/20 03:17:24;;;;;;;5.63;2.23;;;7.10;99.90;;;;;;4983865;28;20753;-84
2023/04/20 03:19:55;;;;;;;5.97;2.23;;;7.10;99.90;;;;;;4992718;28;20653;-84
2023/04/20 03:22:22;;;;;;;3.57;2.70;;;7.10;99.90;;;;;;4977297;28;20204;-85
2023/04/20 03:24:53;;;;;;;8.57;2.73;;;7.10;99.90;;;;;;4987048;28;20311;-84
2023/04/20 03:27:40;;;;;;;5.40;2.53;;;7.10;99.90;;;;;;4991509;28;20216;-84
2023/04/20 03:30:12;;;;;;;7.77;2.60;;;7.10;99.90;;;;;;4996185;28;20227;-84
2023/04/20 03:32:41;;;;;;;3.77;2.20;;;7.10;99.90;;;;;;4997683;28;20203;-84
2023/04/20 03:35:09;;;;;;;7.20;2.57;;;7.10;99.90;;;;;;5019372;28;20232;-85
2023/04/20 03:37:37;;;;;;;3.20;2.30;;;7.10;99.90;;;;;;4971145;28;20201;-86
2023/04/20 03:40:09;;;;;;;4.87;2.87;;;7.00;99.90;;;;;;4994072;28;20204;-85
2023/04/20 03:42:37;;;;;;;5.37;3.10;;;6.90;99.90;;;;;;4970708;28;20200;-84
2023/04/20 03:45:07;;;;;;;6.87;2.30;;;6.80;99.90;;;;;;4991529;28;20634;-85
2023/04/20 03:47:35;;;;;;;6.77;3.00;;;6.80;99.90;;;;;;4996257;28;20201;-85
2023/04/20 03:50:03;;;;;;;5.70;2.87;;;6.70;99.90;;;;;;4983813;28;20204;-84
2023/04/20 03:52:30;;;;;;;6.43;2.90;;;6.60;99.90;;;;;;5004578;28;20201;-80
2023/04/20 03:54:59;;;;;;;4.23;3.00;;;6.60;99.90;;;;;;4991437;28;20197;-79
2023/04/20 03:57:27;;;;;;;5.83;2.80;;;6.50;99.90;;;;;;4970068;28;20209;-81
2023/04/20 03:59:54;;;;;;;4.13;2.70;;;6.50;99.90;;;;;;4994437;28;20221;-81
2023/04/20 04:02:23;;;;;;;8.13;3.20;;;6.50;99.90;;;;;;4991140;28;20410;-80
2023/04/20 04:04:52;;;;;;;4.07;2.50;;;6.40;99.90;;;;;;4984496;28;20265;-80
2023/04/20 04:07:23;;;;;;;7.67;3.10;;;6.40;99.90;;;;;;4989651;28;20898;-81
2023/04/20 04:09:50;;;;;;;5.93;2.77;;;6.40;99.90;;;;;;4990967;28;20607;-80
2023/04/20 04:12:18;;;;;;;6.07;2.80;;;6.40;99.90;;;;;;4987430;28;20271;-79
2023/04/20 04:14:47;;;;;;;7.63;3.23;;;6.30;99.90;;;;;;4977606;28;20216;-80
2023/04/20 04:17:16;;;;;;;6.10;2.90;;;6.30;99.90;;;;;;4973630;28;20212;-79
2023/04/20 04:19:45;;;;;;;3.87;2.70;;;6.30;99.90;;;;;;4973831;28;20228;-84
2023/04/20 04:22:11;;;;;;;5.23;2.80;;;6.20;99.90;;;;;;5003842;28;20204;-85
2023/04/20 04:24:53;;;;;;;6.40;3.10;;;6.20;99.90;;;;;;4986087;28;20213;-83
2023/04/20 04:27:21;;;;;;;2.83;2.47;;;6.20;99.90;;;;;;4983833;28;20875;-85
2023/04/20 04:29:55;;;;;;;6.43;3.13;;;6.20;99.90;;;;;;4970205;28;20224;-85
2023/04/20 04:32:24;;;;;;;6.57;3.40;;;6.20;99.90;;;;;;4975492;28;20202;-84
2023/04/20 04:38:55;;;;;;;5.57;2.73;;;6.20;99.90;;;;;;4974586;23;20638;-46
2023/04/20 04:41:24;;;;;;;7.47;3.00;;;6.20;99.90;;;;;;5032317;28;20261;-44
2023/04/20 04:43:52;;;;;;;6.63;3.10;;;6.20;99.90;;;;;;5039329;28;20227;-43
2023/04/20 04:46:26;;;;;;;8.33;3.13;;;6.20;99.90;;;;;;5007742;28;20218;-44
2023/04/20 04:48:53;;;;;;;10.47;3.27;;;6.20;99.90;;;;;;5029952;28;20200;-45
2023/04/20 04:51:20;;;;;;;5.73;3.67;;;6.20;99.90;;;;;;5031492;28;20204;-43
2023/04/20 04:53:48;;;;;;;8.97;3.00;;;6.20;99.90;;;;;;5018324;28;20529;-47
2023/04/20 04:56:17;;;;;;;4.77;3.47;;;6.20;99.90;;;;;;5026076;28;20233;-44
2023/04/20 04:58:45;;;;;;;6.93;3.00;;;6.20;99.90;;;;;;5030158;28;20192;-44
2023/04/20 05:01:13;;;;;;;13.83;4.10;;;6.30;99.90;;;;;;5005832;28;20211;-44
2023/04/20 05:03:40;;;;;;;7.63;3.13;;;6.30;99.90;;;;;;5027231;28;20250;-42
2023/04/20 05:06:07;;;;;;;6.33;3.60;;;6.30;99.90;;;;;;5032729;28;20203;-43
2023/04/20 05:08:34;;;;;;;7.47;3.50;;;6.30;99.90;;;;;;5026508;28;20196;-53
2023/04/20 05:11:02;;;;;;;8.27;3.70;;;6.40;99.90;;;;;;5042182;28;20203;-46
2023/04/20 05:13:29;;;;;;;9.13;3.80;;;6.40;99.90;;;;;;5017670;28;20281;-50
2023/04/20 05:15:57;;;;;;;6.67;3.13;;;6.40;99.90;;;;;;5033938;28;20229;-48
2023/04/20 05:18:24;;;;;;;8.57;3.57;;;6.40;99.90;;;;;;5012416;28;20675;-50
2023/04/20 05:20:51;;;;;;;7.90;4.00;;;6.40;99.90;;;;;;5032821;28;20198;-48
2023/04/20 05:23:18;;;;;;;9.47;3.20;;;6.50;99.90;;;;;;5025715;28;20830;-51
2023/04/20 05:25:45;;;;;;;7.67;3.30;;;6.50;99.90;;;;;;5027155;28;20339;-51
2023/04/20 05:28:12;;;;;;;7.07;3.67;;;6.50;99.90;;;;;;5017321;28;20203;-49
2023/04/20 05:30:39;;;;;;;5.73;3.30;;;6.50;99.90;;;;;;5021889;28;20195;-48
2023/04/20 05:33:08;;;;;;;6.37;3.30;;;6.50;99.90;;;;;;5008195;28;20253;-50
2023/04/20 05:35:35;;;;;;;4.53;3.17;;;6.50;99.90;;;;;;5031169;28;20726;-48
2023/04/20 05:38:05;;;;;;;7.70;3.47;;;6.50;99.90;;;;;;5020803;28;20219;-46
2023/04/20 05:40:33;;;;;;;8.47;3.33;;;6.50;99.90;;;;;;5023919;28;20659;-56
2023/04/20 05:43:21;;;;;;;9.90;4.00;;;6.50;99.90;;;;;;5024145;28;20269;-56
2023/04/20 05:45:48;;;;;;;9.60;4.57;;;6.50;99.90;;;;;;5027756;28;20968;-46
2023/04/20 05:48:17;;;;;;;7.03;3.67;;;6.50;99.90;;;;;;5027139;28;20747;-45
2023/04/20 05:50:44;;;;;;;10.17;4.30;;;6.50;99.90;;;;;;5016829;28;20199;-44
2023/04/20 05:53:11;;;;;;;12.30;4.30;;;6.50;99.90;;;;;;5022650;28;20207;-43
2023/04/20 05:55:38;;;;;;;10.13;4.03;;;6.50;99.90;;;;;;5031632;28;20221;-47
2023/04/20 05:58:05;;;;;;;10.30;3.87;;;6.50;99.90;;;;;;5031778;28;20245;-42
2023/04/20 06:00:32;;;;;;;10.07;4.30;;;6.50;99.90;;;;;;5019949;28;20258;-40
2023/04/20 06:02:59;;;;;;;9.23;3.87;;;6.50;99.90;;;;;;5031394;28;20858;-46
2023/04/20 06:05:27;;;;;;;11.63;4.57;;;6.50;99.90;;;;;;5010824;28;20214;-46
2023/04/20 06:07:55;;;;;;;6.63;3.23;;;6.50;99.90;;;;;;5027682;28;20195;-43
2023/04/20 06:10:22;;;;;;;9.53;3.87;;;6.50;99.90;;;;;;5019145;28;20298;-42
2023/04/20 06:12:49;;;;;;;9.17;3.70;;;6.50;99.90;;;;;;5035570;28;20909;-42
2023/04/20 06:15:38;;;;;;;6.27;3.60;;;6.50;99.90;;;;;;5034935;28;20212;-42
2023/04/20 06:18:06;;;;;;;11.37;4.20;;;6.60;99.90;;;;;;5042715;28;20659;-44
2023/04/20 06:20:34;;;;;;;7.23;3.33;;;6.50;99.90;;;;;;5012095;28;20269;-41
2023/04/20 06:23:01;;;;;;;10.57;3.70;;;6.50;99.90;;;;;;5032756;28;20192;-42
2023/04/20 06:25:27;;;;;;;11.30;4.30;;;6.50;99.90;;;;;;5020051;28;20299;-45
2023/04/20 06:27:54;;;;;;;9.23;3.70;;;6.50;99.90;;;;;;5026891;28;20188;-43
2023/04/20 06:30:22;;;;;;;9.73;4.00;;;6.50;99.90;;;;;;5060329;28;20200;-40
2023/04/20 06:32:49;;;;;;;12.07;4.33;;;6.50;99.90;;;;;;5035218;28;20196;-43
2023/04/20 06:35:16;;;;;;;16.23;5.17;;;6.50;99.90;;;;;;5012976;28;20235;-51
2023/04/20 06:37:44;;;;;;;8.43;4.20;;;6.50;99.90;;;;;;5030413;28;20266;-53
2023/04/20 06:40:11;;;;;;;6.73;3.70;;;6.50;99.90;;;;;;5035096;28;20231;-47
2023/04/20 06:42:39;;;;;;;7.43;3.93;;;6.50;99.90;;;;;;5031463;28;20203;-50
2023/04/20 06:45:08;;;;;;;8.57;4.00;;;6.50;99.90;;;;;;5042607;28;20266;-48
2023/04/20 06:47:37;;;;;;;7.17;4.10;;;6.50;99.90;;;;;;5042032;28;20640;-48
2023/04/20 06:50:08;;;;;;;10.00;4.30;;;6.50;99.90;;;;;;5008869;28;20295;-49
2023/04/20 06:52:37;;;;;;;11.33;4.73;;;6.60;99.90;;;;;;5030634;28;20658;-48
2023/04/20 06:55:06;;;;;;;14.77;5.07;;;6.50;99.90;;;;;;5038047;28;20210;-48
2023/04/20 06:57:33;;;;;;;12.67;4.63;;;6.50;99.90;;;;;;5033486;28;20209;-53
2023/04/20 07:00:01;;;;;;;8.43;4.43;;;6.50;99.90;;;;;;5030287;28;20192;-47
2023/04/20 07:02:29;;;;;;;9.13;4.47;;;6.50;99.90;;;;;;5042803;28;20607;-56
2023/04/20 07:05:01;;;;;;;11.07;5.03;;;6.50;99.90;;;;;;5019794;28;20332;-48
2023/04/20 07:07:29;;;;;;;6.73;3.70;;;6.60;99.90;;;;;;5043627;28;20273;-47
2023/04/20 07:09:56;;;;;;;10.90;4.63;;;6.60;99.90;;;;;;5038442;28;20192;-47
2023/04/20 07:12:26;;;;;;;7.30;4.37;;;6.60;99.90;;;;;;5036016;28;20216;-49
2023/04/20 07:14:53;;;;;;;13.77;4.27;;;6.60;99.90;;;;;;5037863;28;20993;-47
2023/04/20 07:17:20;;;;;;;7.87;4.27;;;6.60;99.90;;;;;;5038829;28;20220;-51
2023/04/20 07:19:49;;;;;;;10.33;4.40;;;6.60;99.90;;;;;;5001851;28;20214;-51
2023/04/20 07:22:16;;;;;;;10.30;4.40;;;6.60;99.90;;;;;;5037506;28;20310;-49
2023/04/20 07:24:45;;;;;;;7.77;4.27;;;6.60;99.90;;;;;;5031829;28;20207;-50
2023/04/20 07:27:15;;;;;;;11.03;4.27;;;6.70;99.90;;;;;;5044582;28;20200;-52
2023/04/20 07:29:44;;;;;;;9.00;4.77;;;6.70;99.90;;;;;;5038591;28;20219;-49
2023/04/20 07:32:13;;;;;;;8.33;4.33;;;6.70;99.90;;;;;;5034124;28;20553;-49
2023/04/20 07:34:40;;;;;;;10.73;4.80;;;6.70;99.90;;;;;;5035783;28;20215;-51
2023/04/20 07:37:07;;;;;;;10.70;4.30;;;6.70;99.90;;;;;;5021503;28;20215;-46
2023/04/20 07:39:34;;;;;;;9.00;4.20;;;6.70;99.90;;;;;;5043438;28;20207;-52
2023/04/20 07:42:03;;;;;;;10.37;4.73;;;6.80;99.90;;;;;;5037958;28;20203;-48
2023/04/20 07:44:31;;;;;;;11.87;4.83;;;6.80;99.90;;;;;;5033846;28;20223;-45
2023/04/20 07:47:00;;;;;;;10.73;4.00;;;6.80;99.90;;;;;;5027685;28;20195;-51
2023/04/20 07:49:30;;;;;;;9.90;4.57;;;6.80;99.90;;;;;;5030913;28;20208;-46
2023/04/20 07:51:57;;;;;;;13.97;4.77;;;6.80;99.90;;;;;;5014663;28;20211;-48
2023/04/20 07:54:24;;;;;;;13.30;4.80;;;6.80;99.90;;;;;;5038747;28;20219;-48
2023/04/20 07:56:52;;;;;;;9.83;4.10;;;6.80;99.90;;;;;;5030815;28;20227;-46
2023/04/20 07:59:18;;;;;;;7.83;4.30;;;6.80;99.90;;;;;;5023851;28;20230;-50
2023/04/20 08:01:46;;;;;;;11.80;4.73;;;6.80;99.90;;;;;;5020898;28;20204;-49
2023/04/20 08:04:14;;;;;;;12.17;4.80;;;6.80;99.90;;;;;;5037278;28;20583;-50
2023/04/20 08:06:42;;;;;;;10.07;5.27;;;6.80;99.90;;;;;;5013645;28;20212;-49
2023/04/20 08:09:09;;;;;;;15.07;5.10;;;6.80;99.90;;;;;;5039155;28;20200;-47
2023/04/20 08:11:39;;;;;;;9.20;4.23;;;6.80;99.90;;;;;;5041259;28;20202;-49
2023/04/20 08:14:06;;;;;;;9.60;4.97;;;6.80;99.90;;;;;;5028731;28;20235;-49
2023/04/20 08:16:35;;;;;;;9.00;4.83;;;6.90;99.90;;;;;;5033651;28;20196;-46
2023/04/20 08:19:08;;;;;;;11.47;4.97;;;6.90;99.90;;;;;;5033064;28;20250;-49
2023/04/20 08:21:37;;;;;;;7.30;4.83;;;6.90;99.90;;;;;;5030318;28;20213;-48
2023/04/20 08:24:08;;;;;;;11.50;4.80;;;6.90;99.90;;;;;;5039416;28;20223;-49
2023/04/20 08:26:35;;;;;;;9.17;4.77;;;7.00;99.90;;;;;;5039728;28;20198;-49
2023/04/20 08:29:03;;;;;;;8.23;4.87;;;7.00;99.90;;;;;;5024101;28;20325;-47
2023/04/20 08:31:32;;;;;;;11.00;5.10;;;6.90;99.90;;;;;;5038589;28;20198;-48
2023/04/20 08:33:58;;;;;;;10.13;4.97;;;6.90;99.90;;;;;;5041351;28;20221;-49
2023/04/20 08:36:26;;;;;;;12.03;5.17;;;6.90;99.90;;;;;;5045034;28;20233;-51
2023/04/20 08:38:58;;;;;;;10.93;4.93;;;6.90;99.90;;;;;;5013046;28;20211;-49
2023/04/20 08:41:25;;;;;;;14.20;5.67;;;6.90;99.90;;;;;;5030910;28;20195;-46
2023/04/20 08:43:52;;;;;;;11.33;4.80;;;6.90;99.90;;;;;;5026953;28;20219;-47
2023/04/20 08:46:19;;;;;;;11.00;5.53;;;6.90;99.90;;;;;;5023055;28;20224;-46
2023/04/20 08:48:49;;;;;;;8.73;5.40;;;6.90;99.90;;;;;;5033098;28;20466;-48
2023/04/20 08:51:16;;;;;;;9.93;5.57;;;7.00;99.90;;;;;;5039958;28;20200;-51
2023/04/20 08:53:44;;;;;;;8.37;5.33;;;7.00;99.90;;;;;;5009747;28;20306;-51
2023/04/20 08:56:13;;;;;;;12.43;5.27;;;6.90;99.90;;;;;;5028633;28;20207;-47
2023/04/20 08:58:41;;;;;;;9.80;5.40;;;7.00;99.90;;;;;;5034161;28;20195;-46
2023/04/20 09:01:10;;;;;;;11.70;4.80;;;7.00;99.90;;;;;;5025738;28;20202;-48
2023/04/20 09:03:39;;;;;;;9.87;4.70;;;7.00;99.90;;;;;;5036657;28;20239;-48
2023/04/20 09:06:15;;;;;;;12.97;6.43;;;7.00;99.90;;;;;;5036842;28;20281;-51
2023/04/20 09:08:43;;;;;;;11.37;5.30;;;7.10;99.90;;;;;;5012755;28;20214;-48
2023/04/20 09:11:22;;;;;;;9.90;5.23;;;7.10;99.90;;;;;;5027170;28;20282;-47
2023/04/20 09:14:00;;;;;;;10.23;5.80;;;7.10;99.90;;;;;;5029393;28;20219;-46
2023/04/20 09:16:27;;;;;;;14.30;6.40;;;7.10;99.90;;;;;;5036479;28;20205;-55
2023/04/20 09:18:55;;;;;;;11.17;5.67;;;7.20;99.90;;;;;;5034043;28;20198;-51
2023/04/20 09:21:23;;;;;;;9.73;5.90;;;7.30;99.90;;;;;;5035163;28;20230;-50
2023/04/20 09:23:59;;;;;;;10.97;5.57;;;7.40;99.90;;;;;;4998248;28;20400;-50
2023/04/20 09:26:34;;;;;;;15.80;5.90;;;7.60;99.90;;;;;;5029854;28;20208;-52
2023/04/20 09:29:04;;;;;;;10.07;6.17;;;7.80;99.90;;;;;;5037205;28;20214;-48
2023/04/20 09:31:31;;;;;;;12.43;5.43;;;7.80;99.90;;;;;;5030846;28;20297;-51
2023/04/20 09:34:01;;;;;;;14.77;6.50;;;7.70;99.90;;;;;;5036703;28;20215;-46
2023/04/20 09:36:38;;;;;;;11.20;6.37;;;7.80;99.90;;;;;;5027281;28;20191;-49
2023/04/20 09:39:08;;;;;;;10.00;5.43;;;7.90;99.90;;;;;;5007767;28;20199;-47
2023/04/20 09:42:04;;;;;;;10.63;6.27;;;7.90;99.90;;;;;;5035886;28;20209;-47
2023/04/20 09:44:37;;;;;;;13.37;6.40;;;7.90;99.90;;;;;;5033800;28;20257;-55
2023/04/20 09:47:08;;;;;;;12.30;5.73;;;7.90;99.90;;;;;;5032981;28;21953;-47
2023/04/20 09:49:35;;;;;;;9.60;6.20;;;8.00;99.90;;;;;;5038497;28;20183;-48
2023/04/20 09:52:03;;;;;;;9.13;5.43;;;8.00;99.90;;;;;;5027376;28;20195;-49
2023/04/20 09:54:32;;;;;;;13.03;5.80;;;8.10;99.90;;;;;;5010762;28;20258;-48
2023/04/20 09:57:02;;;;;;;10.87;5.90;;;8.10;99.90;;;;;;5033907;28;20318;-47
2023/04/20 09:59:33;;;;;;;10.40;6.07;;;8.10;99.90;;;;;;5031567;28;20192;-51
2023/04/20 10:02:00;;;;;;;10.10;5.90;;;8.10;99.90;;;;;;5025581;28;20265;-47
2023/04/20 10:04:28;;;;;;;10.07;5.83;;;8.10;99.90;;;;;;5025341;28;20784;-50
2023/04/20 10:07:02;;;;;;;13.40;6.17;;;8.00;99.90;;;;;;5024375;28;20283;-48
2023/04/20 10:09:30;;;;;;;11.73;5.80;;;7.90;99.90;;;;;;5010298;28;20207;-53
2023/04/20 10:12:08;;;;;;;14.90;6.30;;;7.90;99.90;;;;;;5028325;28;20312;-46
2023/04/20 10:14:35;;;;;;;12.83;5.57;;;7.80;99.90;;;;;;5025940;28;20647;-49
2023/04/20 10:17:05;;;;;;;11.40;5.97;;;7.90;99.90;;;;;;5023360;28;20265;-51
2023/04/20 10:19:40;;;;;;;11.97;6.20;;;8.00;99.90;;;;;;5024537;28;20291;-53
2023/04/20 10:22:08;;;;;;;10.47;6.40;;;8.10;99.90;;;;;;5028219;28;20199;-49
2023/04/20 10:24:36;;;;;;;13.10;6.67;;;8.30;99.90;;;;;;5018318;28;20227;-49
2023/04/20 10:27:15;;;;;;;10.57;6.63;;;8.40;99.90;;;;;;5029089;28;20222;-49
2023/04/20 10:29:42;;;;;;;11.87;6.13;;;8.50;99.90;;;;;;5028208;28;20215;-49
2023/04/20 10:32:20;;;;;;;8.03;6.17;;;8.60;99.90;;;;;;5033211;28;20206;-51
2023/04/20 10:34:47;;;;;;;9.67;6.00;;;8.60;99.90;;;;;;5015265;28;20948;-50
2023/04/20 10:37:14;;;;;;;10.50;5.83;;;8.70;99.90;;;;;;5029577;28;20255;-48
2023/04/20 10:39:44;;;;;;;14.27;6.43;;;8.70;99.90;;;;;;5016113;28;20208;-47
2023/04/20 10:42:13;;;;;;;15.63;6.47;;;8.80;99.90;;;;;;5042978;28;20195;-53
2023/04/20 10:44:47;;;;;;;11.87;6.37;;;8.80;99.90;;;;;;5025000;28;20227;-56
2023/04/20 10:47:16;;;;;;;10.57;6.03;;;8.80;99.90;;;;;;5019528;28;20202;-49
2023/04/20 10:49:43;;;;;;;8.40;5.93;;;8.70;99.90;;;;;;5031982;28;20207;-50
2023/04/20 10:52:11;;;;;;;14.43;6.47;;;8.70;99.90;;;;;;5039667;28;20203;-54
2023/04/20 10:54:38;;;;;;;9.60;6.90;;;8.70;99.90;;;;;;5039374;28;20228;-49
2023/04/20 10:57:06;;;;;;;11.27;6.00;;;8.80;99.90;;;;;;5021949;28;20207;-49
2023/04/20 10:59:36;;;;;;;12.40;5.90;;;8.80;99.90;;;;;;5037701;28;20246;-52
2023/04/20 11:02:09;;;;;;;9.67;6.27;;;8.90;99.90;;;;;;5023766;28;20199;-52
2023/04/20 11:04:37;;;;;;;9.27;6.03;;;8.90;99.90;;;;;;5038340;28;20293;-49
2023/04/20 11:07:05;;;;;;;13.60;6.27;;;8.90;99.90;;;;;;5047009;28;20211;-52
2023/04/20 11:09:33;;;;;;;11.37;6.10;;;8.80;99.90;;;;;;5039349;28;20200;-52
2023/04/20 11:12:01;;;;;;;12.83;5.93;;;8.80;99.90;;;;;;5019277;28;20195;-51
2023/04/20 11:14:28;;;;;;;10.33;6.00;;;8.80;99.90;;;;;;5035819;28;20269;-51
2023/04/20 11:16:57;;;;;;;8.97;6.20;;;8.90;99.90;;;;;;5023069;28;20216;-47
2023/04/20 11:19:27;;;;;;;15.27;6.70;;;9.10;99.90;;;;;;5036039;28;20203;-50
2023/04/20 11:21:54;;;;;;;9.80;5.80;;;9.30;99.90;;;;;;5043754;28;20221;-49
2023/04/20 11:24:23;;;;;;;10.83;6.30;;;9.30;99.90;;;;;;5041344;28;20207;-50
2023/04/20 11:26:50;;;;;;;14.93;6.50;;;9.30;99.90;;;;;;5015957;28;20836;-52
2023/04/20 11:29:31;;;;;;;10.77;6.77;;;9.40;99.90;;;;;;5035597;28;20271;-46
2023/04/20 11:32:18;;;;;;;13.37;6.43;;;9.50;99.90;;;;;;5022647;28;20295;-47
2023/04/20 11:34:46;;;;;;;14.47;6.43;;;9.50;99.90;;;;;;5027461;28;20223;-51
2023/04/20 11:37:13;;;;;;;11.77;6.40;;;9.50;99.90;;;;;;5033230;28;20203;-47
2023/04/20 11:39:41;;;;;;;7.97;6.17;;;9.60;99.90;;;;;;5035454;28;20277;-47
2023/04/20 11:42:08;;;;;;;10.50;6.77;;;9.70;99.90;;;;;;5029448;28;20250;-47
2023/04/20 11:44:35;;;;;;;13.17;6.37;;;9.60;99.90;;;;;;5012601;28;20222;-46
2023/04/20 11:47:03;;;;;;;14.60;7.07;;;9.70;99.90;;;;;;5027102;28;21814;-49
2023/04/20 11:49:32;;;;;;;8.63;6.43;;;9.60;99.90;;;;;;5038337;28;20200;-53
2023/04/20 11:51:59;;;;;;;13.80;6.77;;;9.60;99.90;;;;;;5030476;28;20212;-48
2023/04/20 11:54:28;;;;;;;13.03;6.83;;;9.60;99.90;;;;;;5035581;28;20680;-47
2023/04/20 11:56:55;;;;;;;11.10;6.50;;;9.50;99.90;;;;;;5032653;28;20918;-51
2023/04/20 11:59:22;;;;;;;12.20;6.50;;;9.50;99.90;;;;;;5015020;28;20207;-49
2023/04/20 12:01:49;;;;;;;11.73;7.23;;;9.50;99.90;;;;;;5036610;28;20204;-52
2023/04/20 12:04:17;;;;;;;9.83;6.73;;;9.50;99.90;;;;;;5037993;28;20259;-50
2023/04/20 12:06:45;;;;;;;10.43;6.93;;;9.40;99.90;;;;;;5027792;28;20232;-50
2023/04/20 12:09:13;;;;;;;13.17;6.83;;;9.40;99.90;;;;;;5025338;28;20192;-51
2023/04/20 12:11:41;;;;;;;7.03;6.33;;;9.40;99.90;;;;;;5029408;28;20279;-49
2023/04/20 12:14:08;;;;;;;12.90;7.87;;;9.40;99.90;;;;;;5014201;28;20239;-48
2023/04/20 12:16:35;;;;;;;10.73;6.63;;;9.40;99.90;;;;;;5039810;28;20284;-48
2023/04/20 12:19:02;;;;;;;12.47;7.60;;;9.40;99.90;;;;;;5024553;28;20203;-48
2023/04/20 12:21:30;;;;;;;8.10;7.00;;;9.40;99.90;;;;;;5040275;28;20195;-48
2023/04/20 12:23:58;;;;;;;13.27;7.20;;;9.40;99.90;;;;;;5014138;28;20991;-47
2023/04/20 12:26:26;;;;;;;13.27;7.23;;;9.30;99.90;;;;;;5036062;28;20211;-50
2023/04/20 12:28:53;;;;;;;9.83;6.80;;;9.20;99.90;;;;;;5011412;28;21421;-47
2023/04/20 12:31:20;;;;;;;12.77;6.60;;;9.20;99.90;;;;;;5039984;28;20637;-51
2023/04/20 12:33:48;;;;;;;12.10;7.17;;;9.10;99.90;;;;;;5021899;28;20219;-48
2023/04/20 12:36:16;;;;;;;12.87;7.17;;;9.20;99.90;;;;;;5040446;28;20224;-47
2023/04/20 12:38:43;;;;;;;15.03;7.07;;;9.20;99.90;;;;;;5027091;28;20279;-48
2023/04/20 12:41:15;;;;;;;10.53;7.17;;;9.20;99.90;;;;;;5038187;28;20191;-48
2023/04/20 12:43:44;;;;;;;13.67;7.60;;;9.20;99.90;;;;;;5031845;28;20275;-53
2023/04/20 12:46:11;;;;;;;9.73;7.03;;;9.20;99.90;;;;;;5013782;28;20220;-49
2023/04/20 12:48:37;;;;;;;13.33;7.00;;;9.20;99.90;;;;;;5031048;28;20200;-49
2023/04/20 12:51:05;;;;;;;10.53;7.27;;;9.30;99.90;;;;;;5027888;28;20262;-46
2023/04/20 12:53:33;;;;;;;12.10;7.27;;;9.20;99.90;;;;;;5021812;28;20208;-56
2023/04/20 12:56:00;;;;;;;11.80;7.70;;;9.30;99.90;;;;;;5027974;28;20196;-52
2023/04/20 12:58:29;;;;;;;13.53;7.10;;;9.30;99.90;;;;;;5034106;28;20203;-50
2023/04/20 13:00:56;;;;;;;10.80;6.87;;;9.40;99.90;;;;;;5008274;28;20208;-50
2023/04/20 13:03:22;;;;;;;10.27;6.40;;;9.50;99.90;;;;;;5042879;28;20202;-51
2023/04/20 13:05:50;;;;;;;10.20;6.63;;;9.60;99.90;;;;;;5000212;28;20207;-54
2023/04/20 13:08:18;;;;;;;14.30;6.97;;;9.70;99.90;;;;;;5029809;28;21166;-50